Aviation Digital Data Service (ADDS)

Output produced by METARs form (0603 UTC 18 January 2018)
found at http://www.aviationweather.gov/adds/metars/
 
UBBB 180600Z 18012KT 9999 FEW030 BKN200 06/01 Q1013 R88/CLRD// NOSIG
TAF UBBB 180509Z 1806/1906 18016KT 9999 BKN025 BKN100 TX07/1811Z TN04/1903Z 
     TEMPO 1806/1818 21018G28KT 
     TEMPO 1818/1824 23016KT SCT012
       
UBBG 180600Z 00000KT 9999 BKN100 01/M02 Q1013 R30/CLRD// NOSIG
TAF UBBG 180500Z 1806/1906 VRB04KT 9999 SCT030 BKN080 TX05/1812Z TNM01/1903Z 
     TEMPO 1806/1808 3000 BR SCT007 BKN030 
     TEMPO 1809/1812 08008KT 
     BECMG 1815/1817 28008KT
       
UBBL 180600Z 00000KT 9000 SCT200 03/02 Q1015 R33/CLRD// NOSIG RMK MT OBSC
TAF UBBL 180516Z 1806/1906 18006KT 8000 BKN030 BKN080 TX08/1811Z TN03/1903Z 
     TEMPO 1806/1816 21008KT SCT012 
     BECMG 1816/1818 28006KT 
     TEMPO 1818/1903 3000 BR BKN020
       
UBBN 180600Z 08004KT 9000 SCT050 BKN083 01/M02 Q1012 R14R/CLRD// NOSIG RMK MT OBSC QFE684
TAF UBBN 180503Z 1806/1906 VRB04KT 8000 SCT050 BKN100 TX09/1812Z TNM04/1903Z 
     TEMPO 1806/1812 13012KT 5000 -SNRA BR BKN033 OVC070 
     TEMPO 1812/1822 16014KT 3000 -SN BR OVC030
       
UBBQ 180600Z 02003KT 9999 SCT150 M01/M02 Q1013 R16/CLRD// NOSIG RMK MT OP
TAF UBBQ 180514Z 1806/1906 18006KT 8000 BKN030 BKN080 TX04/1811Z TNM04/1902Z 
     TEMPO 1806/1812 22008KT 
     BECMG 1812/1814 28008KT 
     TEMPO 1814/1824 30012KT SCT010 OVC020
       
UBBY 180600Z 20004KT 8000 BKN080 00/M01 Q1015 R33/////// NOSIG RMK MT OP
TAF UBBY 180500Z 1806/1815 09008KT 6000 SCT020 BKN080 
     BECMG 1808/1810 VRB02KT
       
UBEE 180600Z 07002KT 5000 BR SCT013 BKN100 M00/M01 Q1015 R30/CLRD// NOSIG
TAF UBEE 180500Z 1806/1815 VRB02KT 2000 BR SCT010 BKN050 
     BECMG 1808/1809 14008KT 9999 NSW SCT050
       
UBBB 180600Z 18012KT 9999 FEW030 BKN200 06/01 Q1013 R88/CLRD// NOSIG
TAF UBBB 180509Z 1806/1906 18016KT 9999 BKN025 BKN100 TX07/1811Z TN04/1903Z 
     TEMPO 1806/1818 21018G28KT 
     TEMPO 1818/1824 23016KT SCT012
       
UBBG 180600Z 00000KT 9999 BKN100 01/M02 Q1013 R30/CLRD// NOSIG
TAF UBBG 180500Z 1806/1906 VRB04KT 9999 SCT030 BKN080 TX05/1812Z TNM01/1903Z 
     TEMPO 1806/1808 3000 BR SCT007 BKN030 
     TEMPO 1809/1812 08008KT 
     BECMG 1815/1817 28008KT